Latest Weather Observations for Yulara

IDD60801

Issued at 11:11 am CST Monday 29 November 2021 (issued every 10 minutes, with the page automatically refreshed every 10 minutes)

About weather observations | Map of weather stations | Latest weather observations for NT | Other Formats
Station Details ID: 015635 Name: YULARA AIRPORT Lat: -25.19 Lon: 130.97 Height: 492.0 m
Data from the previous 72 hours. | See also: Recent months at Yulara
Date/Time
CST
Temp
°C
App
Temp
°C
Dew
Point
°C
Rel
Hum
%
Delta-T
°C
Wind Press
QNH
hPa
Press
MSL
hPa
Rain since
9am
mm
Dir  Spd
km/h
Gust
km/h
Spd
kts
Gust
kts
29/11:00am 29.6 25.3 1.1 16 14.2 NNE 13 20 7 11 1014.3 1011.1 0.0
29/10:30am 28.6 23.9 1.2 17 13.5 NE 15 28 8 15 1014.5 1011.3 0.0
29/10:00am 28.6 23.3 2.0 18 13.3 NE 19 26 10 14 1015.0 1011.8 0.0
29/09:30am 27.9 21.7 2.2 19 12.9 ENE 24 30 13 16 1015.2 1012.0 0.0
29/09:00am 27.1 20.9 4.2 23 11.8 NE 26 35 14 19 1015.2 1012.0 0.0
29/08:30am 25.9 19.6 3.8 24 11.2 NE 26 32 14 17 1015.3 1012.1 0.0
29/08:00am 24.3 18.7 3.6 26 10.4 ENE 22 30 12 16 1015.3 1012.1 0.0
29/07:30am 21.9 17.3 3.6 30 9.0 E 17 22 9 12 1015.2 1012.0 0.0
29/07:00am 19.3 16.3 3.9 36 7.5 ESE 9 13 5 7 1014.8 1011.6 0.0
29/06:30am 16.5 14.0 4.9 46 5.7 SSE 7 11 4 6 1014.5 1011.3 0.0
29/06:00am 15.4 12.4 4.2 47 5.3 SSE 9 9 5 5 1014.2 1011.0 0.0
29/05:30am 14.4 12.0 4.4 51 4.7 SSE 6 7 3 4 1013.9 1010.7 0.0
29/05:00am 15.5 12.8 3.9 46 5.5 SSE 7 9 4 5 1013.6 1010.4 0.0
29/04:30am 16.1 13.4 3.5 43 6.0 SSE 7 11 4 6 1013.4 1010.2 0.0
29/04:00am 17.0 13.8 3.3 40 6.5 SE 9 13 5 7 1013.3 1010.1 0.0
29/03:30am 17.5 13.5 3.0 38 6.9 SE 13 15 7 8 1013.3 1010.1 0.0
29/03:00am 17.7 14.5 2.8 37 7.0 SE 9 11 5 6 1013.4 1010.2 0.0
29/02:30am 17.9 14.6 2.6 36 7.2 SE 9 13 5 7 1013.6 1010.4 0.0
29/02:00am 18.5 14.9 2.8 35 7.4 SE 11 13 6 7 1013.8 1010.6 0.0
29/01:30am 19.0 15.4 2.8 34 7.7 SE 11 13 6 7 1014.0 1010.8 0.0
29/01:00am 20.3 17.0 2.6 31 8.5 ESE 9 11 5 6 1014.3 1011.1 0.0
29/12:30am 20.6 17.9 2.4 30 8.7 E 6 9 3 5 1014.4 1011.2 0.0
29/12:00am 21.1 18.1 1.9 28 9.1 ESE 7 11 4 6 1014.7 1011.4 0.0
 
Date/Time
CST
Temp
°C
App
Temp
°C
Dew
Point
°C
Rel
Hum
%
Delta-T
°C
Wind Press
QNH
hPa
Press
MSL
hPa
Rain since
9am
mm
Dir  Spd
km/h
Gust
km/h
Spd
kts
Gust
kts
28/11:30pm 22.6 19.2 1.6 25 10.0 E 9 13 5 7 1014.9 1011.7 0.0
28/11:00pm 23.1 19.3 2.0 25 10.2 E 11 17 6 9 1015.1 1011.9 0.0
28/10:30pm 23.7 19.2 2.0 24 10.5 E 15 19 8 10 1015.0 1011.8 0.0
28/10:00pm 23.7 19.9 2.0 24 10.5 E 11 13 6 7 1015.0 1011.8 0.0
28/09:30pm 24.4 20.9 1.3 22 11.1 E 9 13 5 7 1014.8 1011.6 0.0
28/09:00pm 25.1 21.2 1.3 21 11.5 E 11 13 6 7 1014.7 1011.4 0.0
28/08:30pm 26.0 22.0 0.6 19 12.2 E 11 15 6 8 1014.4 1011.2 0.0
28/08:00pm 27.1 23.0 0.0 17 13.0 E 11 13 6 7 1014.3 1011.1 0.0
28/07:30pm 28.2 24.0 -0.9 15 13.8 ESE 11 15 6 8 1014.0 1010.8 0.0
28/07:00pm 29.2 25.4 -1.0 14 14.4 SE 9 13 5 7 1013.7 1010.5 0.0
28/06:30pm 29.8 25.9 -1.5 13 14.9 SE 9 17 5 9 1013.5 1010.3 0.0
28/06:00pm 30.3 26.6 -0.1 14 14.9 SSE 9 17 5 9 1013.3 1010.1 0.0
28/05:30pm 30.4 25.4 -1.1 13 15.2 ESE 15 26 8 14 1013.2 1010.0 0.0
28/05:00pm 30.2 26.3 -1.2 13 15.1 NNW 9 24 5 13 1013.2 1010.0 0.0
28/04:30pm 30.3 25.5 -0.1 14 14.9 SE 15 28 8 15 1013.1 1009.9 0.0
28/04:00pm 30.5 27.0 1.0 15 14.7 N 9 19 5 10 1013.4 1010.2 0.0
28/03:30pm 29.8 25.3 -0.5 14 14.7 S 13 20 7 11 1013.8 1010.6 0.0
28/03:00pm 30.6 27.1 1.0 15 14.8 ENE 9 20 5 11 1014.2 1011.0 0.0
28/02:30pm 29.8 25.0 0.4 15 14.4 ESE 15 22 8 12 1014.7 1011.4 0.0
28/02:00pm 29.2 25.4 1.7 17 13.8 E 11 20 6 11 1015.1 1011.9 0.0
28/01:30pm 28.9 24.6 3.0 19 13.2 ESE 15 26 8 14 1015.5 1012.3 0.0
28/01:00pm 29.2 25.3 3.2 19 13.4 E 13 22 7 12 1016.0 1012.8 0.0
28/12:30pm 28.0 23.5 4.3 22 12.3 ESE 17 26 9 14 1016.5 1013.3 0.0
28/12:00pm 27.1 23.1 2.9 21 12.2 ESE 13 24 7 13 1017.1 1013.9 0.0
28/11:30am 27.1 22.9 3.6 22 12.0 E 15 26 8 14 1017.6 1014.4 0.0
28/11:00am 26.1 21.4 3.4 23 11.5 SE 17 26 9 14 1017.8 1014.6 0.0
28/10:30am 25.3 20.2 3.3 24 11.0 E 19 28 10 15 1018.1 1014.9 0.0
28/10:00am 24.8 18.8 3.5 25 10.7 ENE 24 33 13 18 1018.3 1015.1 0.0
28/09:30am 24.3 18.2 3.0 25 10.5 E 24 35 13 19 1018.4 1015.3 0.0
28/09:00am 23.5 17.4 2.9 26 10.1 ENE 24 32 13 17 1018.6 1015.5 0.0
28/08:30am 22.7 16.2 2.8 27 9.7 E 26 33 14 18 1018.7 1015.6 0.0
28/08:00am 21.6 16.5 4.2 32 8.7 E 20 26 11 14 1018.7 1015.6 0.0
28/07:30am 20.3 15.3 4.8 36 7.7 ESE 20 26 11 14 1018.4 1015.3 0.0
28/07:00am 19.0 15.3 6.2 43 6.5 ESE 15 22 8 12 1018.1 1014.9 0.0
28/06:30am 16.8 14.0 6.9 52 5.0 SE 11 13 6 7 1017.8 1014.6 0.0
28/06:00am 15.9 13.1 6.9 55 4.5 SSE 11 13 6 7 1017.4 1014.2 0.0
28/05:30am 16.2 13.4 6.9 54 4.7 SE 11 13 6 7 1017.2 1014.0 0.0
28/05:00am 16.4 14.3 6.8 53 4.9 SE 7 9 4 5 1017.0 1013.8 0.0
28/04:30am 16.9 14.9 7.0 52 5.0 SE 7 11 4 6 1016.8 1013.6 0.0
28/04:00am 17.4 15.0 6.9 50 5.4 SE 9 13 5 7 1016.6 1013.5 0.0
28/03:30am 17.5 14.4 7.3 51 5.2 SE 13 17 7 9 1016.4 1013.2 0.0
28/03:00am 17.7 15.0 7.2 50 5.4 SE 11 15 6 8 1016.4 1013.2 0.0
28/02:30am 18.1 15.3 6.9 48 5.7 SSE 11 13 6 7 1016.4 1013.2 0.0
28/02:00am 18.8 16.4 6.9 46 6.1 SE 9 11 5 6 1016.5 1013.3 0.0
28/01:30am 19.5 17.0 6.6 43 6.6 SE 9 11 5 6 1016.6 1013.5 0.0
28/01:00am 20.7 17.8 6.6 40 7.3 ESE 11 15 6 8 1016.9 1013.7 0.0
28/12:30am 21.1 18.1 6.2 38 7.7 ESE 11 15 6 8 1017.0 1013.8 0.0
28/12:00am 21.6 18.6 5.9 36 8.1 ESE 11 15 6 8 1017.2 1014.0 0.0
 
Date/Time
CST
Temp
°C
App
Temp
°C
Dew
Point
°C
Rel
Hum
%
Delta-T
°C
Wind Press
QNH
hPa
Press
MSL
hPa
Rain since
9am
mm
Dir  Spd
km/h
Gust
km/h
Spd
kts
Gust
kts
27/11:30pm 22.6 19.2 6.0 34 8.6 ESE 13 17 7 9 1017.3 1014.1 0.0
27/11:00pm 23.3 19.0 5.2 31 9.3 ESE 17 22 9 12 1017.3 1014.1 0.0
27/10:30pm 24.0 19.6 4.9 29 9.8 ESE 17 26 9 14 1017.1 1013.9 0.0
27/10:00pm 24.3 19.9 4.6 28 10.1 ESE 17 22 9 12 1016.8 1013.6 0.0
27/09:30pm 24.5 20.8 4.3 27 10.3 SE 13 19 7 10 1016.5 1013.3 0.0
27/09:00pm 24.4 21.1 4.7 28 10.1 ESE 11 13 6 7 1016.3 1013.1 0.0
27/08:30pm 25.2 21.9 4.3 26 10.7 SE 11 15 6 8 1016.0 1012.8 0.0
27/08:00pm 25.8 22.3 3.7 24 11.2 SE 11 15 6 8 1015.6 1012.4 0.0
27/07:30pm 27.1 23.6 3.6 22 12.0 SE 11 13 6 7 1015.2 1012.0 0.0
27/07:00pm 28.5 24.2 3.4 20 12.9 SE 15 22 8 12 1014.9 1011.7 0.0
27/06:30pm 29.0 24.3 3.1 19 13.3 E 17 26 9 14 1014.7 1011.4 0.0
27/06:00pm 29.4 25.1 3.4 19 13.4 E 15 22 8 12 1014.4 1011.2 0.0
27/05:30pm 29.2 24.4 2.5 18 13.6 ESE 17 28 9 15 1014.3 1011.1 0.0
27/05:00pm 29.0 24.9 2.3 18 13.5 SE 13 22 7 12 1014.4 1011.2 0.0
27/04:30pm 28.9 24.8 2.2 18 13.5 SSE 13 22 7 12 1014.5 1011.3 0.0
27/04:00pm 29.9 25.2 3.0 18 13.8 ESE 17 26 9 14 1014.8 1011.6 0.0
27/03:30pm 29.2 24.3 1.7 17 13.8 SE 17 32 9 17 1014.9 1011.7 0.0
27/03:00pm 28.5 24.1 2.7 19 13.1 SE 15 28 8 15 1015.2 1012.0 0.0
27/02:30pm 28.5 24.7 4.1 21 12.7 ESE 13 20 7 11 1015.5 1012.3 0.0
27/02:00pm 28.3 22.4 1.7 18 13.2 SSE 22 46 12 25 1015.8 1012.6 0.0
27/01:30pm 27.5 22.8 3.2 21 12.3 SSE 17 32 9 17 1016.3 1013.1 0.0
27/01:00pm 27.7 23.2 4.1 22 12.2 SSW 17 28 9 15 1016.8 1013.6 0.0
27/12:30pm 26.9 23.5 4.0 23 11.7 ESE 11 20 6 11 1017.4 1014.2 0.0
27/12:00pm 27.1 23.2 5.4 25 11.4 E 15 26 8 14 1017.6 1014.4 0.0
27/11:30am 25.9 20.9 3.8 24 11.2 SE 19 32 10 17 1017.9 1014.7 0.0
27/11:00am 25.1 20.8 5.3 28 10.3 E 17 30 9 16 1018.3 1015.1 0.0
27/10:30am 24.0 19.4 5.4 30 9.6 ESE 19 30 10 16 1018.5 1015.4 0.0
27/10:00am 24.1 18.8 5.0 29 9.8 E 22 30 12 16 1018.7 1015.6 0.0
27/09:30am 23.4 18.5 6.7 34 8.8 ESE 22 33 12 18 1019.0 1015.8 0.0
27/09:00am 22.4 17.1 6.6 36 8.3 ESE 24 33 13 18 1019.2 1016.0 0.0
27/08:30am 21.7 16.4 6.8 38 7.8 ESE 24 35 13 19 1019.3 1016.1 0.0
27/08:00am 20.8 15.6 7.1 41 7.2 SSE 24 33 13 18 1019.3 1016.1 0.0
27/07:30am 19.7 14.8 7.1 44 6.5 SSE 22 30 12 16 1019.1 1015.9 0.0
27/07:00am 18.9 14.5 6.7 45 6.3 SSE 19 28 10 15 1018.7 1015.6 0.0
27/06:30am 16.5 13.2 6.6 52 5.0 S 13 17 7 9 1018.5 1015.4 0.0
27/06:00am 14.7 11.8 6.3 57 4.2 S 11 13 6 7 1018.2 1015.0 0.0
27/05:30am 14.6 11.7 6.4 58 4.1 S 11 13 6 7 1018.0 1014.8 0.0
27/05:00am 14.8 12.3 6.4 57 4.2 S 9 11 5 6 1017.7 1014.5 0.0
27/04:30am 15.3 12.4 6.6 56 4.3 S 11 13 6 7 1017.6 1014.4 0.0
27/04:00am 15.5 12.7 6.8 56 4.4 S 11 13 6 7 1017.3 1014.1 0.0
27/03:30am 15.7 12.5 7.0 56 4.4 SSW 13 15 7 8 1017.3 1014.1 0.0
27/03:00am 16.2 13.4 6.9 54 4.7 SSW 11 13 6 7 1017.1 1013.9 0.0
27/02:30am 16.7 14.3 6.8 52 5.0 S 9 9 5 5 1017.1 1013.9 0.0
27/02:00am 18.1 15.2 6.6 47 5.9 SSE 11 13 6 7 1017.0 1013.8 0.0
27/01:30am 18.5 16.0 6.4 45 6.2 SSE 9 11 5 6 1017.2 1014.0 0.0
27/01:00am 19.0 16.9 6.5 44 6.4 SE 7 11 4 6 1017.4 1014.2 0.0
27/12:30am 19.9 17.3 5.9 40 7.1 SE 9 13 5 7 1017.5 1014.3 0.0
27/12:00am 20.5 17.1 5.7 38 7.5 SE 13 17 7 9 1017.6 1014.4 0.0
 
Date/Time
CST
Temp
°C
App
Temp
°C
Dew
Point
°C
Rel
Hum
%
Delta-T
°C
Wind Press
QNH
hPa
Press
MSL
hPa
Rain since
9am
mm
Dir  Spd
km/h
Gust
km/h
Spd
kts
Gust
kts
26/11:30pm 21.3 17.4 5.2 35 8.1 SE 15 20 8 11 1017.8 1014.6 0.0
26/11:00pm 22.0 17.6 5.0 33 8.6 SE 17 22 9 12 1017.7 1014.5 0.0
26/10:30pm 22.6 17.7 5.1 32 8.9 SE 20 28 11 15 1017.7 1014.5 0.0
26/10:00pm 23.2 17.9 5.2 31 9.2 SE 22 30 12 16 1017.3 1014.1 0.0
26/09:30pm 23.6 18.8 5.5 31 9.3 SSE 20 30 11 16 1017.0 1013.8 0.0
26/09:00pm 24.2 18.9 5.1 29 9.8 SE 22 30 12 16 1016.5 1013.3 0.0
26/08:30pm 24.9 20.1 5.7 29 10.0 SSE 20 30 11 16 1016.1 1012.9 0.0
26/08:00pm 25.5 20.6 7.1 31 9.9 SSE 22 30 12 16 1015.7 1012.5 0.0
26/07:30pm 26.3 22.0 7.8 31 10.1 SSE 20 30 11 16 1015.3 1012.1 0.0
26/07:00pm 27.5 23.8 7.9 29 10.8 SSE 17 24 9 13 1014.9 1011.7 0.0
26/06:30pm 28.1 23.8 7.9 28 11.2 SSE 20 30 11 16 1014.7 1011.4 0.0
26/06:00pm 28.6 24.4 8.3 28 11.3 SSE 20 32 11 17 1014.2 1011.0 0.0
26/05:30pm 29.2 25.3 8.8 28 11.5 SSE 19 28 10 15 1014.0 1010.8 0.0
26/05:00pm 29.2 25.2 8.3 27 11.7 ESE 19 30 10 16 1013.8 1010.6 0.0
26/04:30pm 29.1 25.6 8.7 28 11.5 SE 17 32 9 17 1013.9 1010.7 0.0
26/04:00pm 29.7 26.8 9.8 29 11.4 SE 15 24 8 13 1014.0 1010.8 0.0
26/03:30pm 29.1 25.7 9.3 29 11.3 SE 17 30 9 16 1014.1 1010.9 0.0
26/03:00pm 28.7 25.7 9.4 30 11.0 E 15 28 8 15 1014.4 1011.2 0.0
26/02:30pm 28.8 25.4 9.0 29 11.2 SE 17 30 9 16 1014.8 1011.6 0.0
26/02:00pm 27.6 25.3 10.3 34 9.9 E 13 28 7 15 1015.1 1011.9 0.0
26/01:30pm 26.6 23.3 9.5 34 9.6 E 17 22 9 12 1015.7 1012.5 0.0
26/01:00pm 27.5 25.0 11.1 36 9.5 ESE 15 26 8 14 1016.0 1012.8 0.0
26/12:30pm 26.3 24.1 10.9 38 8.9 ESE 13 24 7 13 1016.4 1013.2 0.0
26/12:00pm 25.2 22.9 10.6 39 8.3 E 13 22 7 12 1017.0 1013.8 0.0
26/11:30am 24.9 22.5 11.5 43 7.7 ESE 15 24 8 13 1017.5 1014.3 0.0

Other formats

Comma delimited format used in spreadsheet applications
http://www.bom.gov.au/fwo/IDD60801/IDD60801.94462.axf

JavaScript Object Notation format (JSON) in row-major order
http://www.bom.gov.au/fwo/IDD60801/IDD60801.94462.json

Data quality

Most of these data are generated automatically and are frequently updated. Quality checks on data are not normally performed. It is possible for incorrect values to appear. Refer to information at About Latest Weather Observations and please check the disclaimer before using these data.